createdAt,value
2019-01-17T00:02:30.728Z,5.90
2019-01-17T00:05:28.625Z,5.90
2019-01-17T00:08:30.476Z,5.90
2019-01-17T00:11:19.627Z,5.90
2019-01-17T00:14:06.849Z,5.80
2019-01-17T00:17:08.156Z,5.80
2019-01-17T00:20:11.801Z,5.80
2019-01-17T00:23:07.927Z,5.80
2019-01-17T00:26:03.117Z,5.80
2019-01-17T00:28:55.022Z,5.80
2019-01-17T00:32:03.581Z,5.80
2019-01-17T00:34:46.566Z,5.80
2019-01-17T00:37:34.502Z,5.80
2019-01-17T00:40:26.639Z,5.80
2019-01-17T00:43:26.722Z,5.80
2019-01-17T00:46:13.996Z,5.80
2019-01-17T00:49:05.677Z,5.90
2019-01-17T00:51:53.216Z,5.90
2019-01-17T00:54:40.562Z,5.90
2019-01-17T00:57:25.223Z,5.80
2019-01-17T01:00:12.292Z,5.90
2019-01-17T01:03:11.743Z,5.80
2019-01-17T01:06:10.124Z,5.80
2019-01-17T01:09:09.228Z,5.90
2019-01-17T01:11:56.827Z,5.80
2019-01-17T01:14:48.941Z,5.90
2019-01-17T01:17:31.560Z,5.80
2019-01-17T01:20:19.113Z,5.90
2019-01-17T01:23:14.338Z,5.90
2019-01-17T01:26:16.200Z,5.90
2019-01-17T01:29:03.939Z,5.90
2019-01-17T01:31:51.622Z,5.80
2019-01-17T01:34:34.746Z,5.80
2019-01-17T01:37:22.259Z,5.80
2019-01-17T01:40:23.363Z,5.80
2019-01-17T01:43:15.356Z,5.90
2019-01-17T01:46:03.629Z,5.90
2019-01-17T01:48:55.282Z,5.90
2019-01-17T01:51:47.210Z,5.90
2019-01-17T01:54:21.991Z,5.90
2019-01-17T01:56:48.766Z,5.90
2019-01-17T01:59:19.105Z,5.80
2019-01-17T02:01:49.172Z,5.80
2019-01-17T02:04:19.316Z,5.80
2019-01-17T02:06:51.446Z,5.80
2019-01-17T02:09:21.530Z,5.80
2019-01-17T02:11:51.604Z,5.80
2019-01-17T02:16:54.407Z,5.80
2019-01-17T02:19:24.422Z,5.80
2019-01-17T02:21:55.374Z,5.90
2019-01-17T02:24:28.649Z,5.80
2019-01-17T02:26:57.657Z,5.90
2019-01-17T02:29:27.756Z,5.80
2019-01-17T02:31:57.856Z,5.90
2019-01-17T02:34:28.020Z,5.90
2019-01-17T02:36:58.133Z,6.00
2019-01-17T02:39:28.206Z,5.90
2019-01-17T02:41:58.103Z,5.90
2019-01-17T02:44:28.060Z,5.90
2019-01-17T02:46:57.975Z,5.90
2019-01-17T02:49:27.910Z,5.90
2019-01-17T02:51:57.789Z,5.90
2019-01-17T02:54:27.657Z,5.90
2019-01-17T02:56:58.560Z,5.80
2019-01-17T02:59:28.511Z,5.80
2019-01-17T03:01:58.272Z,5.80
2019-01-17T03:04:28.184Z,5.80
2019-01-17T03:06:58.055Z,5.80
2019-01-17T03:09:27.863Z,5.80
2019-01-17T03:11:58.052Z,5.70
2019-01-17T03:14:27.947Z,5.70
2019-01-17T03:16:58.991Z,5.70
2019-01-17T03:19:28.966Z,5.70
2019-01-17T03:21:59.055Z,5.80
2019-01-17T03:24:29.075Z,5.70
2019-01-17T03:26:58.852Z,5.70
2019-01-17T03:29:29.217Z,5.80
2019-01-17T03:31:59.405Z,5.80
2019-01-17T03:34:29.833Z,5.80
2019-01-17T03:36:59.782Z,5.80
2019-01-17T03:39:29.708Z,5.70
2019-01-17T03:41:59.933Z,5.60
2019-01-17T03:44:29.861Z,5.60
2019-01-17T03:46:59.660Z,5.70
2019-01-17T03:49:29.570Z,5.60
2019-01-17T03:51:59.544Z,5.70
2019-01-17T03:54:29.606Z,5.60
2019-01-17T03:56:59.581Z,5.70
2019-01-17T03:59:30.668Z,5.70
2019-01-17T04:02:01.566Z,5.70
2019-01-17T04:04:31.459Z,5.70
2019-01-17T04:07:01.620Z,5.70
2019-01-17T04:09:32.043Z,5.70
2019-01-17T04:12:01.988Z,5.80
2019-01-17T04:14:32.323Z,5.80
2019-01-17T04:17:02.483Z,5.70
2019-01-17T04:19:32.565Z,5.70
2019-01-17T04:22:02.515Z,5.70
2019-01-17T04:24:32.638Z,5.80
2019-01-17T04:27:03.188Z,5.80
2019-01-17T04:29:33.386Z,5.80
2019-01-17T04:32:03.557Z,5.70
2019-01-17T04:34:33.697Z,5.70
2019-01-17T04:37:03.761Z,5.80
2019-01-17T04:39:34.312Z,5.80
2019-01-17T04:42:04.132Z,5.80
2019-01-17T04:44:34.674Z,5.70
2019-01-17T04:47:04.746Z,5.80
2019-01-17T04:49:34.459Z,5.70
2019-01-17T04:52:04.301Z,5.70
2019-01-17T04:54:34.086Z,5.80
2019-01-17T04:57:04.217Z,5.80
2019-01-17T04:59:34.075Z,5.80
2019-01-17T05:02:03.925Z,5.80
2019-01-17T05:04:33.738Z,5.80
2019-01-17T05:07:03.726Z,5.80
2019-01-17T05:09:33.635Z,5.80
2019-01-17T05:12:03.638Z,5.80
2019-01-17T05:14:33.606Z,5.80
2019-01-17T05:17:03.549Z,5.90
2019-01-17T05:19:34.474Z,5.80
2019-01-17T05:22:04.335Z,5.90
2019-01-17T05:24:34.445Z,5.90
2019-01-17T05:27:17.095Z,5.90
2019-01-17T05:29:48.077Z,5.90
2019-01-17T05:32:18.016Z,5.90
2019-01-17T05:34:48.007Z,5.90
2019-01-17T05:37:17.908Z,6.00
2019-01-17T05:39:47.650Z,5.90
2019-01-17T05:42:17.517Z,5.90
2019-01-17T05:44:47.586Z,5.80
2019-01-17T05:47:17.489Z,5.80
2019-01-17T05:49:47.284Z,5.80
2019-01-17T05:52:17.232Z,5.80
2019-01-17T05:54:46.984Z,5.90
2019-01-17T05:57:17.521Z,5.90
2019-01-17T05:59:52.753Z,5.90
2019-01-17T06:02:22.728Z,5.80
2019-01-17T06:04:53.316Z,5.80
2019-01-17T06:07:28.650Z,5.90
2019-01-17T06:10:13.332Z,5.90
2019-01-17T06:12:45.703Z,5.80
2019-01-17T06:15:21.110Z,5.90
2019-01-17T06:17:51.443Z,5.90
2019-01-17T06:20:43.472Z,6.00
2019-01-17T06:24:02.415Z,5.90
2019-01-17T06:26:32.205Z,5.90
2019-01-17T06:29:01.968Z,5.90
2019-01-17T06:31:31.803Z,5.90
2019-01-17T06:34:01.482Z,5.90
2019-01-17T06:36:32.968Z,5.80
2019-01-17T06:39:02.870Z,5.80
2019-01-17T06:41:32.989Z,5.80
2019-01-17T06:44:02.778Z,5.80
2019-01-17T06:46:32.518Z,5.80
2019-01-17T06:49:02.231Z,5.80
2019-01-17T06:51:31.935Z,5.80
2019-01-17T06:54:01.727Z,5.80
2019-01-17T06:56:31.434Z,5.80
2019-01-17T06:59:01.099Z,5.90
2019-01-17T07:01:30.733Z,5.90
2019-01-17T07:04:00.394Z,6.00
2019-01-17T07:06:30.166Z,5.90
2019-01-17T07:08:59.863Z,6.00
2019-01-17T07:11:29.756Z,5.90
2019-01-17T07:13:59.424Z,6.00
2019-01-17T07:16:29.319Z,6.00
2019-01-17T07:18:59.200Z,6.00
2019-01-17T07:21:28.902Z,6.00
2019-01-17T07:23:58.638Z,6.00
2019-01-17T07:26:28.323Z,6.10
2019-01-17T07:28:58.171Z,6.10
2019-01-17T07:31:27.847Z,6.00
2019-01-17T07:33:57.485Z,6.00
2019-01-17T07:36:27.286Z,6.00
2019-01-17T07:38:57.114Z,6.00
2019-01-17T07:41:26.828Z,6.00
2019-01-17T07:43:56.533Z,6.00
2019-01-17T07:46:26.435Z,5.90
2019-01-17T07:48:56.159Z,5.90
2019-01-17T07:51:26.030Z,5.90
2019-01-17T07:53:55.816Z,6.00
2019-01-17T07:56:25.962Z,5.90
2019-01-17T07:58:55.696Z,5.90
2019-01-17T08:01:25.454Z,6.00
2019-01-17T08:03:55.209Z,6.00
2019-01-17T08:06:25.034Z,6.00
2019-01-17T08:08:54.789Z,6.00
2019-01-17T08:11:24.661Z,6.10
2019-01-17T08:13:54.417Z,6.20
2019-01-17T08:16:24.291Z,6.10
2019-01-17T08:18:54.331Z,6.10
2019-01-17T08:21:23.995Z,6.10
2019-01-17T08:23:53.753Z,6.00
2019-01-17T08:26:23.418Z,6.00
2019-01-17T08:28:53.070Z,6.00
2019-01-17T08:31:22.758Z,6.10
2019-01-17T08:33:52.537Z,6.10
2019-01-17T08:36:22.171Z,6.20
2019-01-17T08:38:51.853Z,6.30
2019-01-17T08:41:21.527Z,6.30
2019-01-17T08:43:51.160Z,6.50
2019-01-17T08:46:20.913Z,6.80
2019-01-17T08:48:50.641Z,7.00
2019-01-17T08:51:20.436Z,7.50
2019-01-17T08:53:50.119Z,7.90
2019-01-17T08:56:19.780Z,7.90
2019-01-17T08:58:49.478Z,7.80
2019-01-17T09:01:19.184Z,7.80
2019-01-17T09:03:49.189Z,7.60
2019-01-17T09:06:19.045Z,7.40
2019-01-17T09:08:48.769Z,7.20
2019-01-17T09:11:18.632Z,7.10
2019-01-17T09:13:48.318Z,7.00
2019-01-17T09:16:18.203Z,6.90
2019-01-17T09:18:48.030Z,6.80
2019-01-17T09:21:17.811Z,6.80
2019-01-17T09:23:47.548Z,6.90
2019-01-17T09:26:17.536Z,6.80
2019-01-17T09:28:47.422Z,6.90
2019-01-17T09:31:17.220Z,6.80
2019-01-17T09:33:46.974Z,6.80
2019-01-17T09:36:16.854Z,6.80
2019-01-17T09:38:46.592Z,7.10
2019-01-17T09:41:16.279Z,7.10
2019-01-17T09:43:46.011Z,7.00
2019-01-17T09:46:15.719Z,7.10
2019-01-17T09:48:45.599Z,7.60
2019-01-17T09:51:15.572Z,8.10
2019-01-17T09:53:45.399Z,8.40
2019-01-17T09:56:15.112Z,8.70
2019-01-17T09:58:45.095Z,8.80
2019-01-17T10:01:15.872Z,8.40
2019-01-17T10:03:45.517Z,8.00
2019-01-17T10:06:15.370Z,7.80
2019-01-17T10:08:45.087Z,7.50
2019-01-17T10:11:14.837Z,7.40
2019-01-17T10:13:44.681Z,7.30
2019-01-17T10:16:39.095Z,7.20
2019-01-17T10:19:45.464Z,7.20
2019-01-17T10:23:01.230Z,7.10
2019-01-17T10:25:41.991Z,6.90
2019-01-17T10:28:43.930Z,6.90
2019-01-17T10:32:07.320Z,7.00
2019-01-17T10:35:09.589Z,7.00
2019-01-17T10:38:18.520Z,6.90
2019-01-17T10:41:15.091Z,6.80
2019-01-17T10:44:00.242Z,6.80
2019-01-17T10:47:20.031Z,6.80
2019-01-17T10:50:08.699Z,6.80
2019-01-17T10:53:04.845Z,6.80
2019-01-17T10:56:10.791Z,6.80
2019-01-17T10:59:00.461Z,6.70
2019-01-17T11:01:42.653Z,6.70
2019-01-17T11:04:49.676Z,6.80
2019-01-17T11:07:45.947Z,6.80
2019-01-17T11:11:00.409Z,6.70
2019-01-17T11:13:59.868Z,6.80
2019-01-17T11:16:47.859Z,6.80
2019-01-17T11:20:07.203Z,6.70
2019-01-17T11:22:57.923Z,6.60
2019-01-17T11:25:55.664Z,6.70
2019-01-17T11:28:58.294Z,6.70
2019-01-17T11:32:05.261Z,6.60
2019-01-17T11:35:37.462Z,6.60
2019-01-17T11:38:31.373Z,6.60
2019-01-17T11:42:07.871Z,6.70
2019-01-17T11:45:20.837Z,6.60
2019-01-17T11:48:26.375Z,6.60
2019-01-17T11:51:16.473Z,6.60
2019-01-17T11:54:10.373Z,6.60
2019-01-17T11:57:05.436Z,6.60
2019-01-17T12:00:00.511Z,6.60
2019-01-17T12:03:06.575Z,6.70
2019-01-17T12:05:45.347Z,6.70
2019-01-17T12:08:20.516Z,6.60
2019-01-17T12:11:30.397Z,6.70
2019-01-17T12:14:03.803Z,6.70
2019-01-17T12:16:33.693Z,6.80
2019-01-17T12:19:27.721Z,7.10
2019-01-17T12:22:01.206Z,7.20
2019-01-17T12:24:55.552Z,7.10
2019-01-17T12:27:53.063Z,7.10
2019-01-17T12:30:27.688Z,7.00
2019-01-17T12:33:02.695Z,7.00
2019-01-17T12:35:35.400Z,7.00
2019-01-17T12:38:09.668Z,7.00
2019-01-17T12:40:58.388Z,7.30
2019-01-17T12:43:48.418Z,7.60
2019-01-17T12:46:20.434Z,7.90
2019-01-17T12:51:31.000Z,7.60
2019-01-17T12:54:02.085Z,7.60
2019-01-17T12:59:12.865Z,7.20
2019-01-17T13:01:46.142Z,7.30
2019-01-17T13:04:29.513Z,7.20
2019-01-17T13:07:00.727Z,7.40
2019-01-17T13:09:32.638Z,7.20
2019-01-17T13:12:04.743Z,7.20
2019-01-17T13:14:35.654Z,7.20
2019-01-17T13:17:10.867Z,7.00
2019-01-17T13:19:41.951Z,6.90
2019-01-17T13:22:13.488Z,6.90
2019-01-17T13:24:45.784Z,6.90
2019-01-17T13:27:18.368Z,6.80
2019-01-17T13:29:52.477Z,6.90
2019-01-17T13:32:20.664Z,6.80
2019-01-17T13:34:50.652Z,6.80
2019-01-17T13:37:20.514Z,6.80
2019-01-17T13:39:50.445Z,6.80
2019-01-17T13:42:20.863Z,6.80
2019-01-17T13:44:53.491Z,6.70
2019-01-17T13:47:27.541Z,6.70
2019-01-17T13:49:57.381Z,6.70
2019-01-17T13:52:27.247Z,6.70
2019-01-17T13:54:58.623Z,6.70
2019-01-17T13:57:45.126Z,6.80
2019-01-17T14:00:20.219Z,6.70
2019-01-17T14:03:05.364Z,6.70
2019-01-17T14:05:35.525Z,6.70
2019-01-17T14:08:05.560Z,6.70
2019-01-17T14:10:55.653Z,6.70
2019-01-17T14:13:25.457Z,6.70
2019-01-17T14:15:55.238Z,6.70
2019-01-17T14:18:27.990Z,6.70
2019-01-17T14:20:56.484Z,6.70
2019-01-17T14:23:27.215Z,6.70
2019-01-17T14:25:56.977Z,6.70
2019-01-17T14:28:26.794Z,6.60
2019-01-17T14:30:56.687Z,6.70
2019-01-17T14:33:26.729Z,6.70
2019-01-17T14:35:56.575Z,6.60
2019-01-17T14:38:26.327Z,6.70
2019-01-17T14:40:56.186Z,6.70
2019-01-17T14:43:26.016Z,6.70
2019-01-17T14:45:55.872Z,6.60
2019-01-17T14:48:25.703Z,6.60
2019-01-17T14:50:55.708Z,6.60
2019-01-17T14:53:25.487Z,6.50
2019-01-17T14:55:55.265Z,6.60
2019-01-17T14:58:25.101Z,6.50
2019-01-17T15:00:55.014Z,6.60
2019-01-17T15:03:24.804Z,6.60
2019-01-17T15:05:55.075Z,6.60
2019-01-17T15:08:25.002Z,6.50
2019-01-17T15:10:54.719Z,6.50
2019-01-17T15:13:24.814Z,6.50
2019-01-17T15:15:54.536Z,6.50
2019-01-17T15:18:24.308Z,6.50
2019-01-17T15:20:54.211Z,6.50
2019-01-17T15:23:24.062Z,6.50
2019-01-17T15:25:54.004Z,6.50
2019-01-17T15:28:23.809Z,6.50
2019-01-17T15:30:53.598Z,6.60
2019-01-17T15:33:23.267Z,6.60
2019-01-17T15:35:53.046Z,6.70
2019-01-17T15:38:22.970Z,6.70
2019-01-17T15:40:52.703Z,6.60
2019-01-17T15:43:22.453Z,6.60
2019-01-17T15:45:52.224Z,6.60
2019-01-17T15:48:22.819Z,6.60
2019-01-17T15:50:52.564Z,6.60
2019-01-17T15:53:22.625Z,6.60
2019-01-17T15:55:52.271Z,6.60
2019-01-17T15:58:22.292Z,6.60
2019-01-17T16:00:52.300Z,6.60
2019-01-17T16:03:22.199Z,6.60
2019-01-17T16:05:52.015Z,6.50
2019-01-17T16:08:22.032Z,6.50
2019-01-17T16:10:52.141Z,6.50
2019-01-17T16:13:21.903Z,6.50
2019-01-17T16:15:51.710Z,6.50
2019-01-17T16:18:21.586Z,6.50
2019-01-17T16:20:51.439Z,6.50
2019-01-17T16:23:21.312Z,6.50
2019-01-17T16:25:51.113Z,6.50
2019-01-17T16:28:20.977Z,6.40
2019-01-17T16:30:50.689Z,6.40
2019-01-17T16:33:20.600Z,6.40
2019-01-17T16:35:50.490Z,6.40
2019-01-17T16:38:20.469Z,6.30
2019-01-17T16:40:50.287Z,6.40
2019-01-17T16:43:20.089Z,6.30
2019-01-17T16:45:50.088Z,6.30
2019-01-17T16:48:20.110Z,6.20
2019-01-17T16:50:50.019Z,6.20
2019-01-17T16:53:19.876Z,6.20
2019-01-17T16:55:50.009Z,6.30
2019-01-17T16:58:19.825Z,6.20
2019-01-17T17:00:49.668Z,6.20
2019-01-17T17:03:19.920Z,6.20
2019-01-17T17:05:49.724Z,6.20
2019-01-17T17:08:21.126Z,6.20
2019-01-17T17:10:50.864Z,6.20
2019-01-17T17:13:22.498Z,6.10
2019-01-17T17:15:55.231Z,8.40
2019-01-17T17:18:27.568Z,6.10
2019-01-17T17:20:57.482Z,6.10
2019-01-17T17:23:28.079Z,6.10
2019-01-17T17:25:59.218Z,6.10
2019-01-17T17:28:29.253Z,6.10
2019-01-17T17:30:58.951Z,6.20
2019-01-17T17:33:28.727Z,6.20
2019-01-17T17:35:58.781Z,6.20
2019-01-17T17:38:28.456Z,6.20
2019-01-17T17:40:58.712Z,6.20
2019-01-17T17:43:28.510Z,6.10
2019-01-17T17:45:58.289Z,6.20
2019-01-17T17:48:28.491Z,6.20
2019-01-17T17:51:01.008Z,6.10
2019-01-17T17:54:00.208Z,6.10
2019-01-17T17:56:37.192Z,6.10
2019-01-17T17:59:09.001Z,6.10
2019-01-17T18:01:48.216Z,6.00
2019-01-17T18:04:29.001Z,5.90
2019-01-17T18:07:01.921Z,5.90
2019-01-17T18:09:32.932Z,5.90
2019-01-17T18:12:05.328Z,5.80
2019-01-17T18:14:38.138Z,5.90
2019-01-17T18:17:09.245Z,5.80
2019-01-17T18:19:39.021Z,5.80
2019-01-17T18:22:13.771Z,5.80
2019-01-17T18:24:49.543Z,5.80
2019-01-17T18:27:17.372Z,5.80
2019-01-17T18:29:47.184Z,5.80
2019-01-17T18:32:16.955Z,5.80
2019-01-17T18:34:46.823Z,5.80
2019-01-17T18:37:16.595Z,5.80
2019-01-17T18:39:46.441Z,5.80
2019-01-17T18:42:16.168Z,5.70
2019-01-17T18:44:45.915Z,5.70
2019-01-17T18:47:16.099Z,5.80
2019-01-17T18:49:45.910Z,5.70
2019-01-17T18:52:18.132Z,5.60
2019-01-17T18:54:47.953Z,5.50
2019-01-17T18:57:18.414Z,5.50
2019-01-17T18:59:53.474Z,5.50
2019-01-17T19:02:24.177Z,5.50
2019-01-17T19:05:03.544Z,5.50
2019-01-17T19:07:50.092Z,5.50
2019-01-17T19:10:28.684Z,5.40
2019-01-17T19:13:07.991Z,5.40
2019-01-17T19:15:35.352Z,5.40
2019-01-17T19:18:48.529Z,5.40
2019-01-17T19:21:42.405Z,5.30
2019-01-17T19:24:15.956Z,5.20
2019-01-17T19:27:21.284Z,5.20
2019-01-17T19:29:54.786Z,5.20
2019-01-17T19:33:11.412Z,5.30
2019-01-17T19:36:02.056Z,5.30
2019-01-17T19:39:37.223Z,5.20
2019-01-17T19:42:12.962Z,5.20
2019-01-17T19:44:47.871Z,5.10
2019-01-17T19:47:52.741Z,5.20
2019-01-17T19:50:44.162Z,5.20
2019-01-17T19:56:38.407Z,5.20
2019-01-17T19:59:30.313Z,5.20
2019-01-17T20:02:05.987Z,5.30
2019-01-17T20:04:41.711Z,5.10
2019-01-17T20:07:19.852Z,5.00
2019-01-17T20:09:53.976Z,4.90
2019-01-17T20:12:26.728Z,4.90
2019-01-17T20:14:58.738Z,4.80
2019-01-17T20:17:32.937Z,4.80
2019-01-17T20:20:02.974Z,4.80
2019-01-17T20:22:50.873Z,4.80
2019-01-17T20:25:36.039Z,4.80
2019-01-17T20:28:06.111Z,4.70
2019-01-17T20:30:47.661Z,4.70
2019-01-17T20:33:39.012Z,4.70
2019-01-17T20:39:57.876Z,4.60
2019-01-17T20:42:29.007Z,4.60
2019-01-17T20:45:03.598Z,4.60
2019-01-17T20:47:36.758Z,4.60
2019-01-17T20:50:12.740Z,4.60
2019-01-17T20:52:46.999Z,4.60
2019-01-17T20:55:17.073Z,4.60
2019-01-17T20:57:50.315Z,4.50
2019-01-17T21:00:29.472Z,4.50
2019-01-17T21:03:15.602Z,4.50
2019-01-17T21:06:00.113Z,4.60
2019-01-17T21:08:30.059Z,4.50
2019-01-17T21:11:05.779Z,4.40
2019-01-17T21:13:39.240Z,4.50
2019-01-17T21:16:09.016Z,4.50
2019-01-17T21:18:39.003Z,4.40
2019-01-17T21:21:09.102Z,4.40
2019-01-17T21:23:39.210Z,4.40
2019-01-17T21:26:09.029Z,4.40
2019-01-17T21:28:38.759Z,4.40
2019-01-17T21:31:08.581Z,4.30
2019-01-17T21:33:38.401Z,4.30
2019-01-17T21:36:08.466Z,4.40
2019-01-17T21:38:38.565Z,4.30
2019-01-17T21:41:09.165Z,4.30
2019-01-17T21:43:40.994Z,4.30
2019-01-17T21:46:14.045Z,4.30
2019-01-17T21:48:47.518Z,4.30
2019-01-17T21:51:16.726Z,4.30
2019-01-17T21:53:49.228Z,4.30
2019-01-17T21:56:21.459Z,4.40
2019-01-17T21:58:57.182Z,4.40
2019-01-17T22:01:26.882Z,4.20
2019-01-17T22:03:57.688Z,4.20
2019-01-17T22:06:27.300Z,4.20
2019-01-17T22:08:58.613Z,4.20
2019-01-17T22:11:31.178Z,4.20
2019-01-17T22:14:01.890Z,4.20
2019-01-17T22:16:32.978Z,4.10
2019-01-17T22:19:02.911Z,4.10
2019-01-17T22:21:33.243Z,4.10
2019-01-17T22:24:03.659Z,4.10
2019-01-17T22:26:35.195Z,4.00
2019-01-17T22:29:05.737Z,4.00
2019-01-17T22:31:36.807Z,3.90
2019-01-17T22:34:07.265Z,3.90
2019-01-17T22:36:37.443Z,3.90
2019-01-17T22:39:07.570Z,3.80
2019-01-17T22:41:37.437Z,3.80
2019-01-17T22:44:07.684Z,3.70
2019-01-17T22:46:38.458Z,3.70
2019-01-17T22:49:09.648Z,3.70
2019-01-17T22:51:40.363Z,3.70
2019-01-17T22:54:10.268Z,3.70
2019-01-17T22:56:41.679Z,3.70
2019-01-17T22:59:16.579Z,3.70
2019-01-17T23:01:54.846Z,3.70
2019-01-17T23:04:26.755Z,3.70
2019-01-17T23:06:58.137Z,3.60
2019-01-17T23:09:28.599Z,3.60
2019-01-17T23:11:58.450Z,3.60
2019-01-17T23:14:29.350Z,3.60
2019-01-17T23:16:59.577Z,3.50
2019-01-17T23:19:29.319Z,3.50
2019-01-17T23:21:59.010Z,3.40
2019-01-17T23:24:28.910Z,3.40
2019-01-17T23:26:58.679Z,3.30
2019-01-17T23:29:28.468Z,3.30
2019-01-17T23:31:58.274Z,3.30
2019-01-17T23:34:28.098Z,3.30
2019-01-17T23:36:58.048Z,3.30
2019-01-17T23:39:27.747Z,3.30
2019-01-17T23:41:59.034Z,3.20
2019-01-17T23:44:28.856Z,3.20
2019-01-17T23:46:58.692Z,3.20
2019-01-17T23:49:28.473Z,3.10
2019-01-17T23:51:58.377Z,3.00
2019-01-17T23:54:28.149Z,3.00
2019-01-17T23:56:58.116Z,3.00
2019-01-17T23:59:27.944Z,3.00
